Time;durP1;ratioP1;P1;durP2;ratioP2;P2;SDS_P1;SDS_P2;PMS_P1;PMS_P2;Temp;Humidity;BMP_temperature;BMP_pressure;BME280_temperature;BME280_humidity;BME280_pressure;Samples;Min_cycle;Max_cycle;Signal;HPM_P1;HPM_P2
2020/12/12 00:02:17;;;;;;;34.55;18.70;;;2.50;81.20;;;0.18;83.81;94126.16;4985142;28;20107;-62
2020/12/12 00:04:43;;;;;;;31.50;17.15;;;2.50;81.30;;;0.18;83.60;94125.38;4969337;28;20799;-62
2020/12/12 00:07:08;;;;;;;33.78;17.88;;;2.50;81.20;;;0.19;83.68;94121.81;4981527;28;20027;-63
2020/12/12 00:09:35;;;;;;;36.42;19.33;;;2.50;81.20;;;0.16;83.90;94132.50;5016707;23;20110;-74
2020/12/12 00:12:01;;;;;;;39.20;20.33;;;2.40;81.30;;;0.15;83.62;94125.72;4947168;28;20082;-72
2020/12/12 00:14:27;;;;;;;37.35;19.58;;;2.40;81.40;;;0.16;83.91;94140.25;4941406;28;20507;-71
2020/12/12 00:16:53;;;;;;;42.63;20.75;;;2.50;81.30;;;0.14;84.09;94134.44;4970882;28;20045;-71
2020/12/12 00:19:19;;;;;;;38.65;20.10;;;2.40;81.30;;;0.10;83.83;94121.06;4954182;28;20042;-71
2020/12/12 00:21:50;;;;;;;34.78;18.83;;;2.40;81.50;;;0.10;84.59;94128.03;4950327;28;20409;-71
2020/12/12 00:24:16;;;;;;;32.67;17.77;;;2.40;81.60;;;0.12;83.97;94123.50;4967004;28;20066;-71
2020/12/12 00:26:41;;;;;;;32.90;17.42;;;2.40;81.60;;;0.06;84.09;94122.41;5004592;28;20076;-70
2020/12/12 00:29:07;;;;;;;37.42;19.13;;;2.30;81.90;;;0.08;84.07;94127.41;4987477;28;20058;-71
2020/12/12 00:31:32;;;;;;;30.48;17.13;;;2.30;81.90;;;0.07;83.72;94126.59;4961546;28;20085;-70
2020/12/12 00:33:58;;;;;;;35.65;18.23;;;2.30;82.00;;;0.10;84.33;94138.38;4986062;28;20030;-70
2020/12/12 00:36:23;;;;;;;35.58;17.55;;;2.40;81.90;;;0.08;84.19;94135.97;4984704;28;20494;-70
2020/12/12 00:38:49;;;;;;;33.80;17.42;;;2.30;82.00;;;0.09;84.29;94134.19;4966304;28;20622;-71
2020/12/12 00:41:14;;;;;;;32.92;17.83;;;2.30;82.10;;;0.08;84.31;94123.03;4964786;28;20072;-73
2020/12/12 00:43:40;;;;;;;32.03;17.08;;;2.40;81.90;;;0.10;84.17;94128.84;4980412;28;20088;-71
2020/12/12 00:46:05;;;;;;;32.38;17.88;;;2.30;82.10;;;0.10;84.39;94112.53;4977815;28;20188;-70
2020/12/12 00:48:31;;;;;;;33.80;18.58;;;2.40;82.00;;;0.12;84.00;94118.31;4973812;28;20535;-70
2020/12/12 00:50:57;;;;;;;33.30;17.65;;;2.40;81.90;;;0.12;84.16;94118.31;4969948;28;20077;-70
2020/12/12 00:53:22;;;;;;;33.92;17.13;;;2.40;81.90;;;0.14;84.29;94116.34;4986101;28;20599;-71
2020/12/12 00:55:48;;;;;;;40.55;19.85;;;2.40;81.80;;;0.16;84.24;94114.41;4966997;28;20563;-71
2020/12/12 00:58:13;;;;;;;31.95;17.35;;;2.50;81.80;;;0.17;84.43;94119.41;4953592;28;20046;-70
2020/12/12 01:00:39;;;;;;;31.10;17.60;;;2.50;81.90;;;0.16;84.50;94111.81;4985517;28;20038;-71
2020/12/12 01:03:05;;;;;;;32.92;17.55;;;2.50;81.70;;;0.20;84.14;94118.25;4945575;28;20037;-70
2020/12/12 01:05:33;;;;;;;36.92;18.88;;;2.60;81.60;;;0.16;84.40;94111.81;4979207;28;20035;-70
2020/12/12 01:08:00;;;;;;;33.33;17.95;;;2.60;81.50;;;0.23;84.12;94123.09;4992442;28;20200;-70
2020/12/12 01:10:25;;;;;;;32.67;17.20;;;2.70;81.40;;;0.26;84.52;94128.72;4952844;28;20050;-71
2020/12/12 01:12:52;;;;;;;36.78;18.42;;;2.70;81.30;;;0.29;84.01;94132.72;4950750;28;20066;-71
2020/12/12 01:15:18;;;;;;;33.30;17.60;;;2.70;81.10;;;0.30;84.31;94134.34;4963504;28;20129;-70
2020/12/12 01:17:44;;;;;;;34.47;18.17;;;2.70;81.00;;;0.28;83.72;94121.59;4933725;28;20023;-71
2020/12/12 01:20:10;;;;;;;32.47;17.85;;;2.80;81.00;;;0.33;84.40;94133.97;4983619;28;20506;-70
2020/12/12 01:22:35;;;;;;;33.05;17.73;;;2.80;81.00;;;0.36;84.31;94138.00;4985927;28;20054;-71
2020/12/12 01:25:02;;;;;;;36.28;17.75;;;2.80;81.00;;;0.37;84.18;94135.22;4985922;28;20042;-71
2020/12/12 01:27:28;;;;;;;35.13;18.55;;;2.80;80.90;;;0.39;84.29;94128.09;4977156;28;20037;-71
2020/12/12 01:29:53;;;;;;;35.05;16.55;;;2.80;81.00;;;0.39;83.83;94125.50;4966620;28;20042;-71
2020/12/12 01:32:19;;;;;;;32.80;17.80;;;2.80;80.80;;;0.40;84.17;94128.91;4934751;28;20118;-71
2020/12/12 01:34:44;;;;;;;32.20;16.85;;;2.80;80.70;;;0.43;83.70;94128.56;4983263;28;20097;-71
2020/12/12 01:37:10;;;;;;;36.03;18.40;;;2.90;80.70;;;0.42;83.85;94127.75;4983786;28;20044;-71
2020/12/12 01:39:36;;;;;;;32.20;17.48;;;2.80;80.70;;;0.41;83.69;94122.75;4985475;28;20041;-71
2020/12/12 01:42:01;;;;;;;34.10;17.40;;;2.90;80.60;;;0.44;84.45;94130.97;4966099;28;20054;-71
2020/12/12 01:44:27;;;;;;;38.40;17.65;;;2.80;80.60;;;0.42;84.05;94124.34;4966481;28;20062;-71
2020/12/12 01:46:52;;;;;;;31.95;18.23;;;2.80;80.60;;;0.40;83.99;94109.03;5009724;28;20053;-71
2020/12/12 01:49:18;;;;;;;33.95;17.38;;;2.80;80.70;;;0.37;84.37;94101.63;4970212;28;20084;-71
2020/12/12 01:51:44;;;;;;;34.72;17.83;;;2.80;80.70;;;0.37;84.38;94114.53;4952362;28;20217;-71
2020/12/12 01:54:10;;;;;;;33.10;17.25;;;2.80;80.70;;;0.35;83.98;94111.34;4965683;28;20051;-71
2020/12/12 01:56:36;;;;;;;32.08;16.92;;;2.70;80.90;;;0.35;84.04;94101.00;4963252;28;20166;-71
2020/12/12 01:59:02;;;;;;;31.77;17.02;;;2.80;80.80;;;0.36;84.27;94105.19;4950639;28;20027;-71
2020/12/12 02:01:28;;;;;;;32.03;17.23;;;2.70;80.80;;;0.35;83.92;94101.00;4969813;28;20502;-70
2020/12/12 02:03:55;;;;;;;34.25;18.23;;;2.70;80.80;;;0.34;84.38;94103.75;4972149;28;20231;-71
2020/12/12 02:06:21;;;;;;;36.60;18.30;;;2.70;80.90;;;0.33;84.08;94100.38;4966013;28;20038;-70
2020/12/12 02:08:51;;;;;;;32.85;17.55;;;2.70;80.80;;;0.29;84.27;94086.19;4972192;28;20049;-71
2020/12/12 02:11:16;;;;;;;31.92;17.55;;;2.70;80.80;;;0.30;84.30;94092.97;4979461;28;20503;-71
2020/12/12 02:13:47;;;;;;;34.15;17.13;;;2.60;80.90;;;0.30;84.09;94092.97;4995894;28;20045;-71
2020/12/12 02:16:14;;;;;;;;;;;2.70;81.10;;;0.25;84.72;94080.56;4978874;28;20119;-70
2020/12/12 02:18:40;;;;;;;29.23;15.75;;;2.60;81.00;;;0.26;84.19;94091.72;4987066;28;20316;-71
2020/12/12 02:21:06;;;;;;;29.23;16.63;;;2.60;81.20;;;0.26;84.04;94094.31;4969563;28;20041;-71
2020/12/12 02:23:31;;;;;;;30.77;16.92;;;2.60;81.30;;;0.23;83.95;94090.28;4974703;28;20497;-70
2020/12/12 02:25:57;;;;;;;33.22;16.98;;;2.60;81.30;;;0.25;83.88;94090.09;4994381;28;20045;-71
2020/12/12 02:28:30;;;;;;;31.58;16.85;;;2.60;81.30;;;0.25;83.95;94092.69;4999036;28;20050;-72
2020/12/12 02:30:56;;;;;;;32.60;16.63;;;2.60;81.20;;;0.26;83.93;94089.13;4957871;28;20057;-71
2020/12/12 02:33:21;;;;;;;30.70;16.70;;;2.60;81.20;;;0.23;84.13;94079.16;4987864;28;20482;-71
2020/12/12 02:35:47;;;;;;;32.03;17.40;;;2.60;81.30;;;0.20;84.02;94082.06;4988305;28;20038;-71
2020/12/12 02:38:12;;;;;;;29.63;16.02;;;2.60;81.30;;;0.22;84.16;94080.09;4970923;28;20034;-70
2020/12/12 02:40:38;;;;;;;30.08;16.88;;;2.60;81.30;;;0.19;84.00;94080.44;4971151;28;20039;-71
2020/12/12 02:43:09;;;;;;;29.30;16.15;;;2.50;81.20;;;0.20;84.84;94084.63;4965820;28;20096;-71
2020/12/12 02:45:35;;;;;;;33.00;16.92;;;2.50;81.30;;;0.18;84.11;94079.66;4980464;28;20459;-70
2020/12/12 02:48:00;;;;;;;32.70;17.40;;;2.50;81.30;;;0.18;84.00;94084.00;4962307;28;20121;-70
2020/12/12 02:50:27;;;;;;;31.20;17.10;;;2.50;81.30;;;0.18;84.35;94087.41;4976350;28;20121;-71
2020/12/12 02:52:53;;;;;;;31.40;17.27;;;2.60;81.20;;;0.15;84.16;94089.53;4967487;28;20031;-70
2020/12/12 02:55:18;;;;;;;34.35;17.35;;;2.40;81.50;;;0.14;84.20;94087.94;4975366;28;20050;-70
2020/12/12 02:57:44;;;;;;;32.38;16.42;;;2.40;81.50;;;0.13;84.31;94075.97;4971115;28;20101;-70
2020/12/12 03:00:14;;;;;;;32.08;17.50;;;2.50;81.40;;;0.13;84.05;94070.81;4987381;28;20125;-69
2020/12/12 03:02:39;;;;;;;32.10;17.00;;;2.50;81.40;;;0.08;84.76;94058.41;4987832;28;20728;-70
2020/12/12 03:05:05;;;;;;;27.85;16.00;;;2.40;81.40;;;0.09;84.67;94067.78;4980666;28;20046;-70
2020/12/12 03:07:32;;;;;;;30.17;16.35;;;2.40;81.40;;;0.08;83.90;94063.59;4999499;28;20054;-70
2020/12/12 03:09:58;;;;;;;32.97;17.48;;;2.40;81.40;;;0.04;84.19;94059.75;4971797;28;20133;-70
2020/12/12 03:12:23;;;;;;;30.30;16.50;;;2.40;81.50;;;0.06;84.45;94069.91;4970293;28;20190;-70
2020/12/12 03:14:49;;;;;;;31.23;16.25;;;2.40;81.50;;;0.04;84.17;94064.13;4971906;28;20406;-70
2020/12/12 03:17:14;;;;;;;32.97;16.23;;;2.40;81.40;;;0.04;84.54;94066.72;4987229;28;20118;-70
2020/12/12 03:19:40;;;;;;;30.13;16.25;;;2.40;81.40;;;0.05;84.43;94063.13;4965159;28;20050;-70
2020/12/12 03:22:05;;;;;;;29.10;16.70;;;2.40;81.50;;;0.04;84.05;94070.09;4987326;28;20046;-71
2020/12/12 03:24:32;;;;;;;31.83;17.35;;;2.40;81.50;;;0.04;84.32;94074.47;4987368;28;20032;-70
2020/12/12 03:26:57;;;;;;;28.85;16.42;;;2.40;81.60;;;0.03;84.68;94054.75;4963574;28;20693;-70
2020/12/12 03:29:23;;;;;;;27.85;16.55;;;2.40;81.60;;;0.05;84.18;94063.13;4991179;28;20034;-70
2020/12/12 03:31:49;;;;;;;30.40;16.15;;;2.40;81.50;;;0.04;84.39;94067.50;4970461;28;20069;-70
2020/12/12 03:34:14;;;;;;;27.17;15.80;;;2.40;81.40;;;0.04;84.30;94062.34;4959199;28;20035;-70
2020/12/12 03:36:40;;;;;;;30.58;16.05;;;2.40;81.50;;;0.08;84.26;94067.97;4985897;28;20042;-70
2020/12/12 03:39:05;;;;;;;27.50;14.88;;;2.40;81.50;;;0.08;84.11;94067.97;4937306;28;20030;-71
2020/12/12 03:41:31;;;;;;;29.65;16.00;;;2.40;81.30;;;0.08;84.45;94065.38;4986671;28;20042;-71
2020/12/12 03:43:56;;;;;;;29.08;16.85;;;2.50;81.30;;;0.09;84.51;94065.19;4987341;28;20050;-71
2020/12/12 03:46:22;;;;;;;30.05;16.40;;;2.50;81.30;;;0.11;84.34;94072.78;4996216;28;20038;-70
2020/12/12 03:48:47;;;;;;;31.35;17.58;;;2.50;81.20;;;0.08;84.25;94067.97;4973863;28;20038;-70
2020/12/12 03:51:13;;;;;;;30.23;16.70;;;2.50;81.30;;;0.08;84.31;94075.72;4971497;28;20121;-70
2020/12/12 03:53:38;;;;;;;26.65;15.88;;;2.40;81.30;;;0.08;84.26;94083.47;4986711;28;20111;-70
2020/12/12 03:56:04;;;;;;;29.23;16.90;;;2.40;81.40;;;0.08;84.12;94080.88;4969420;28;20698;-70
2020/12/12 03:58:30;;;;;;;31.85;16.02;;;2.40;81.40;;;0.07;84.66;94087.84;4987942;28;20046;-71
2020/12/12 04:00:55;;;;;;;31.83;16.38;;;2.40;81.40;;;0.06;84.38;94085.41;4984256;28;20154;-71
2020/12/12 04:03:21;;;;;;;30.08;16.98;;;2.40;81.50;;;0.07;84.58;94081.84;4983218;28;20069;-70
2020/12/12 04:05:47;;;;;;;27.40;15.85;;;2.40;81.40;;;0.10;84.70;94086.69;4989164;28;20101;-69
2020/12/12 04:08:13;;;;;;;28.83;16.25;;;2.50;81.30;;;0.11;84.51;94089.09;4970006;28;20077;-70
2020/12/12 04:10:38;;;;;;;30.30;16.85;;;2.60;81.30;;;0.13;84.77;94092.28;4959714;28;20085;-70
2020/12/12 04:13:04;;;;;;;30.35;16.50;;;2.60;81.10;;;0.14;84.20;94086.16;4986797;28;20118;-70
2020/12/12 04:15:29;;;;;;;26.90;15.07;;;2.60;81.10;;;0.15;84.62;94085.16;4987981;28;20030;-71
2020/12/12 04:17:55;;;;;;;28.20;15.95;;;2.50;80.90;;;0.14;84.32;94077.59;4951055;28;20034;-70
2020/12/12 04:20:20;;;;;;;29.33;16.83;;;2.60;81.10;;;0.17;84.55;94083.22;4965379;28;20383;-72
2020/12/12 04:22:46;;;;;;;28.13;16.17;;;2.60;81.10;;;0.19;84.59;94083.03;4966430;28;20038;-70
2020/12/12 04:25:11;;;;;;;29.27;16.98;;;2.60;81.10;;;0.20;84.07;94082.06;4989894;28;20042;-71
2020/12/12 04:27:37;;;;;;;29.45;16.48;;;2.60;80.90;;;0.19;84.08;94086.41;5005578;28;20054;-71
2020/12/12 04:30:04;;;;;;;29.00;16.08;;;2.60;80.80;;;0.17;84.37;94070.28;4984191;28;20041;-68
2020/12/12 04:32:29;;;;;;;29.30;15.20;;;2.60;80.80;;;0.19;84.70;94080.44;4985569;28;20060;-69
2020/12/12 04:34:55;;;;;;;30.35;16.08;;;2.60;81.00;;;0.21;84.42;94084.47;4952988;28;20069;-74
2020/12/12 04:37:21;;;;;;;30.85;16.45;;;2.60;81.40;;;0.23;84.36;94082.53;4992098;28;20592;-69
2020/12/12 04:39:46;;;;;;;32.03;16.83;;;2.60;81.40;;;0.23;84.53;94092.88;4985377;28;20417;-69
2020/12/12 04:42:12;;;;;;;26.52;15.63;;;2.60;80.90;;;0.25;84.28;94087.53;4992508;28;20050;-67
2020/12/12 04:44:39;;;;;;;35.35;16.08;;;2.60;81.00;;;0.25;84.36;94079.78;4986986;28;20039;-68
2020/12/12 04:47:05;;;;;;;33.80;17.98;;;2.60;80.90;;;0.26;84.21;94083.97;4987532;28;20061;-67
2020/12/12 04:49:30;;;;;;;30.27;15.95;;;2.60;80.80;;;0.26;84.34;94076.22;4965148;28;20035;-70
2020/12/12 04:51:56;;;;;;;29.25;16.52;;;2.60;80.80;;;0.25;84.56;94072.00;4997729;28;20027;-70
2020/12/12 04:54:21;;;;;;;32.35;16.88;;;2.60;80.80;;;0.26;84.59;94079.59;4986050;28;20125;-70
2020/12/12 04:56:47;;;;;;;30.60;16.92;;;2.60;80.80;;;0.23;84.04;94086.91;4969325;28;20057;-70
2020/12/12 04:59:13;;;;;;;29.45;16.63;;;2.60;80.70;;;0.24;84.59;94099.66;4986851;28;20035;-71
2020/12/12 05:01:40;;;;;;;30.65;16.05;;;2.60;80.90;;;0.22;84.21;94101.56;4988238;28;20382;-70
2020/12/12 05:04:07;;;;;;;27.92;16.67;;;2.60;80.70;;;0.22;84.44;94100.78;4970422;28;20053;-71
2020/12/12 05:06:33;;;;;;;31.90;17.48;;;2.60;80.80;;;0.24;84.53;94109.19;4981422;28;20056;-70
2020/12/12 05:08:58;;;;;;;30.75;16.55;;;2.60;80.90;;;0.21;84.40;94096.59;4977443;28;20069;-72
2020/12/12 05:11:24;;;;;;;32.10;17.05;;;2.60;80.90;;;0.24;84.29;94109.19;4974881;28;20046;-70
2020/12/12 05:13:50;;;;;;;27.55;15.98;;;2.60;80.80;;;0.23;84.20;94102.41;4960592;28;20039;-72
2020/12/12 05:16:17;;;;;;;31.10;16.42;;;2.60;80.80;;;0.22;84.11;94099.00;4970691;28;20502;-71
2020/12/12 05:18:43;;;;;;;30.73;16.80;;;2.60;80.70;;;0.21;84.02;94104.34;4970396;28;20043;-72
2020/12/12 05:21:10;;;;;;;29.95;16.63;;;2.60;80.70;;;0.19;84.09;94090.78;4987741;28;20140;-70
2020/12/12 05:23:35;;;;;;;33.33;17.75;;;2.50;80.90;;;0.21;84.03;94088.81;4966008;28;20034;-70
2020/12/12 05:26:01;;;;;;;34.15;17.30;;;2.60;80.90;;;0.21;84.67;94096.59;4983076;28;20483;-70
2020/12/12 05:28:27;;;;;;;32.50;17.30;;;2.60;80.90;;;0.21;84.36;94096.59;4974030;28;20057;-70
2020/12/12 05:30:53;;;;;;;31.70;17.10;;;2.60;80.80;;;0.18;84.61;94105.50;4993809;28;20042;-70
2020/12/12 05:33:24;;;;;;;34.30;17.67;;;2.60;80.70;;;0.20;84.71;94113.06;4997117;28;20038;-71
2020/12/12 05:35:50;;;;;;;30.27;16.92;;;2.60;80.80;;;0.23;84.47;94107.56;4966286;28;20077;-69
2020/12/12 05:38:15;;;;;;;30.52;16.65;;;2.60;80.90;;;0.22;84.42;94100.78;4989433;28;20475;-68
2020/12/12 05:40:43;;;;;;;31.95;16.90;;;2.60;80.90;;;0.21;84.31;94094.00;4989994;28;20034;-68
2020/12/12 05:43:10;;;;;;;30.80;16.98;;;2.60;80.70;;;0.21;84.30;94097.38;4989826;28;20061;-69
2020/12/12 05:45:37;;;;;;;30.30;16.13;;;2.60;80.70;;;0.22;84.21;94095.59;4973496;28;20038;-67
2020/12/12 05:48:07;;;;;;;31.00;16.90;;;2.60;80.70;;;0.22;84.40;94096.41;4959746;28;20097;-67
2020/12/12 05:50:32;;;;;;;30.42;17.15;;;2.60;80.80;;;0.24;84.61;94104.00;4973276;28;20043;-67
2020/12/12 05:52:58;;;;;;;31.95;16.55;;;2.60;80.80;;;0.23;84.41;94099.81;4961388;28;20042;-68
2020/12/12 05:55:31;;;;;;;37.55;19.25;;;2.60;80.70;;;0.24;84.54;94110.00;4973574;28;20137;-67
2020/12/12 05:57:57;;;;;;;37.45;19.27;;;2.70;81.20;;;0.29;84.56;94119.81;4958478;28;20093;-67
2020/12/12 06:00:23;;;;;;;36.28;18.92;;;2.70;81.10;;;0.32;84.42;94129.00;4980239;28;20035;-67
2020/12/12 06:02:58;;;;;;;55.00;30.08;;;2.70;80.90;;;0.33;84.42;94122.84;4970291;28;20716;-67
2020/12/12 06:05:28;;;;;;;53.53;29.00;;;2.80;80.80;;;0.38;84.76;94131.66;4957755;28;20037;-67
2020/12/12 06:08:02;;;;;;;35.33;19.15;;;2.90;80.70;;;0.41;84.49;94130.50;4989793;28;20422;-67
2020/12/12 06:10:29;;;;;;;64.43;33.28;;;2.80;80.20;;;0.37;84.29;94119.72;4973025;28;20458;-66
2020/12/12 06:12:59;;;;;;;50.45;27.48;;;2.80;80.40;;;0.37;84.38;94124.88;4990020;28;20439;-67
2020/12/12 06:15:32;;;;;;;32.30;17.75;;;2.70;80.30;;;0.39;84.33;94135.88;4974009;28;20038;-67
2020/12/12 06:18:31;;;;;;;45.58;25.35;;;2.70;80.20;;;0.39;84.37;94138.44;4989303;28;20038;-67
2020/12/12 06:20:56;;;;;;;30.08;16.80;;;2.80;80.40;;;0.38;84.28;94136.03;4963748;28;20058;-67
2020/12/12 06:23:22;;;;;;;33.88;17.23;;;2.80;80.00;;;0.36;84.27;94133.63;4967612;28;20039;-67
2020/12/12 06:25:47;;;;;;;30.25;16.80;;;2.70;80.10;;;0.36;84.28;94133.63;4989662;28;20045;-67
2020/12/12 06:28:21;;;;;;;34.33;19.65;;;2.70;80.00;;;0.35;83.84;94141.56;4980969;28;20203;-67
2020/12/12 06:30:47;;;;;;;36.35;18.27;;;2.80;80.00;;;0.35;84.23;94152.72;4969735;28;20114;-67
2020/12/12 06:33:12;;;;;;;31.58;17.45;;;2.80;80.10;;;0.32;84.50;94129.78;4957387;28;20129;-67
2020/12/12 06:35:39;;;;;;;31.98;16.95;;;2.70;80.30;;;0.31;84.46;94135.94;4989085;28;20046;-68
2020/12/12 06:38:24;;;;;;;31.23;17.30;;;2.70;80.30;;;0.32;84.64;94137.53;4972670;28;20516;-67
2020/12/12 06:40:51;;;;;;;33.92;16.75;;;2.70;80.40;;;0.30;84.36;94144.69;4957325;28;20609;-68
2020/12/12 06:43:35;;;;;;;33.08;17.27;;;2.70;80.30;;;0.30;84.40;94152.44;4969509;28;20055;-68
2020/12/12 06:46:05;;;;;;;38.47;21.05;;;2.70;80.20;;;0.29;84.32;94145.66;4968605;28;20093;-68
2020/12/12 06:48:32;;;;;;;47.60;25.45;;;2.70;80.40;;;0.30;84.34;94158.41;4966461;28;20088;-69
2020/12/12 06:50:59;;;;;;;36.88;19.35;;;2.70;80.70;;;0.30;84.35;94170.53;4988396;28;20034;-68
2020/12/12 06:53:26;;;;;;;32.60;17.60;;;2.70;80.30;;;0.28;84.39;94169.91;4956922;28;20530;-71
2020/12/12 06:56:09;;;;;;;37.25;19.13;;;2.70;80.30;;;0.27;84.31;94160.53;4936891;28;20081;-68
2020/12/12 06:58:39;;;;;;;43.15;21.38;;;2.70;80.30;;;0.28;84.25;94172.50;4966406;28;20041;-70
2020/12/12 07:01:30;;;;;;;35.88;19.60;;;2.70;80.20;;;0.28;84.21;94168.13;4967107;28;20038;-68
2020/12/12 07:04:06;;;;;;;34.00;17.13;;;2.70;80.40;;;0.28;84.28;94181.03;4963554;28;20048;-68
2020/12/12 07:06:33;;;;;;;32.47;17.33;;;2.70;80.50;;;0.28;84.18;94177.66;4983337;28;20051;-67
2020/12/12 07:09:17;;;;;;;36.00;17.98;;;2.70;80.40;;;0.27;84.60;94188.97;4960165;28;20034;-67
2020/12/12 07:11:42;;;;;;;35.03;17.75;;;2.70;80.40;;;0.28;84.20;94182.84;4975476;28;20039;-68
2020/12/12 07:14:08;;;;;;;34.50;17.45;;;2.70;80.30;;;0.26;84.07;94195.13;4952011;28;20126;-68
2020/12/12 07:16:34;;;;;;;33.13;18.23;;;2.70;80.30;;;0.25;84.21;94189.16;4980828;28;20062;-69
2020/12/12 07:18:59;;;;;;;34.90;17.52;;;2.70;80.30;;;0.25;83.91;94198.69;4955900;28;20038;-69
2020/12/12 07:21:25;;;;;;;35.05;17.20;;;2.70;80.20;;;0.24;83.80;94202.25;4983135;28;20133;-69
2020/12/12 07:23:50;;;;;;;36.08;17.65;;;2.70;80.30;;;0.25;84.44;94203.88;4987874;28;20058;-69
2020/12/12 07:26:16;;;;;;;33.58;18.35;;;2.70;80.30;;;0.25;84.25;94209.03;4967825;28;20093;-69
2020/12/12 07:28:41;;;;;;;32.45;17.42;;;2.70;80.50;;;0.26;83.91;94208.06;4968429;28;20047;-69
2020/12/12 07:31:07;;;;;;;33.15;18.35;;;2.70;80.30;;;0.25;84.56;94206.44;4959189;28;20077;-69
2020/12/12 07:33:33;;;;;;;34.13;17.80;;;2.80;80.20;;;0.27;84.25;94207.06;4971660;28;20065;-69
2020/12/12 07:35:59;;;;;;;37.38;19.20;;;2.80;80.20;;;0.28;84.48;94201.72;4968254;28;20043;-68
2020/12/12 07:38:24;;;;;;;35.90;18.60;;;2.80;80.30;;;0.32;84.56;94204.78;4956457;28;20097;-69
2020/12/12 07:40:50;;;;;;;34.25;17.50;;;2.80;80.30;;;0.35;84.31;94203.63;4987965;28;20042;-69
2020/12/12 07:43:16;;;;;;;34.30;17.10;;;2.90;80.30;;;0.40;84.36;94207.28;4968581;28;20518;-69
2020/12/12 07:48:12;;;;;;;;;;;3.00;80.20;;;0.45;84.38;94199.81;4968421;28;20046;-68
2020/12/12 07:50:38;;;;;;;36.05;18.27;;;3.10;80.20;;;0.51;84.36;94201.72;4968211;28;19965;-69
2020/12/12 07:53:11;;;;;;;34.05;18.25;;;3.10;80.30;;;0.56;84.32;94208.94;4963343;28;20065;-68
2020/12/12 07:55:48;;;;;;;36.13;17.83;;;3.10;80.10;;;0.57;84.53;94213.94;4985443;28;20045;-68
2020/12/12 07:58:23;;;;;;;35.75;18.92;;;3.10;79.80;;;0.63;84.53;94207.25;4971471;28;20026;-68
2020/12/12 08:01:15;;;;;;;42.65;19.05;;;3.20;79.80;;;0.68;84.45;94204.16;4975480;28;20042;-67
2020/12/12 08:03:46;;;;;;;35.03;18.40;;;3.20;79.60;;;0.72;84.37;94213.19;4950957;28;20131;-67
2020/12/12 08:06:11;;;;;;;43.15;23.55;;;3.20;79.60;;;0.75;83.87;94205.09;4969211;28;20112;-67
2020/12/12 08:08:37;;;;;;;42.08;22.13;;;3.20;79.60;;;0.80;84.05;94208.75;4968038;28;20066;-67
2020/12/12 08:11:05;;;;;;;34.63;19.85;;;3.30;79.50;;;0.84;83.90;94206.59;4968002;28;20481;-67
2020/12/12 08:13:30;;;;;;;34.92;19.48;;;3.40;79.50;;;0.88;83.61;94211.25;4952013;28;20152;-67
2020/12/12 08:16:06;;;;;;;32.65;18.13;;;3.30;79.20;;;0.88;83.72;94205.25;4981154;28;20495;-68
2020/12/12 08:18:31;;;;;;;34.08;18.08;;;3.30;79.20;;;0.87;84.24;94214.00;4977109;28;20039;-67
2020/12/12 08:21:13;;;;;;;36.28;18.60;;;3.20;79.30;;;0.86;83.82;94215.00;4952050;28;20041;-67
2020/12/12 08:23:39;;;;;;;36.67;18.45;;;3.20;79.40;;;0.78;83.72;94204.72;4982078;28;20053;-67
2020/12/12 08:26:05;;;;;;;34.88;21.50;;;3.10;79.50;;;0.74;84.02;94219.00;4955002;28;20039;-67
2020/12/12 08:28:32;;;;;;;40.55;21.75;;;3.00;80.00;;;0.72;84.06;94231.31;4954808;28;20188;-67
2020/12/12 08:31:14;;;;;;;36.78;18.83;;;3.00;80.00;;;0.72;83.98;94229.53;4970975;28;20687;-67
2020/12/12 08:33:42;;;;;;;40.95;21.25;;;3.00;80.20;;;0.70;84.26;94238.44;4967731;28;20038;-67
2020/12/12 08:36:18;;;;;;;42.05;20.52;;;3.00;80.50;;;0.72;84.19;94241.66;4951489;28;20336;-67
2020/12/12 08:38:57;;;;;;;33.47;19.00;;;3.10;80.10;;;0.76;83.51;94254.06;4936322;28;20039;-67
2020/12/12 08:41:37;;;;;;;36.97;19.40;;;3.10;80.00;;;0.78;84.33;94246.13;4952166;28;20065;-67
2020/12/12 08:44:03;;;;;;;36.28;19.40;;;3.10;80.20;;;0.77;83.78;94252.28;4952159;28;20101;-67
2020/12/12 08:46:28;;;;;;;34.47;17.85;;;3.10;80.10;;;0.72;83.66;94249.41;4950939;28;20047;-67
2020/12/12 08:48:55;;;;;;;34.80;19.13;;;3.00;80.40;;;0.73;83.75;94256.19;4935411;28;20410;-67
2020/12/12 08:51:28;;;;;;;35.92;18.27;;;3.10;80.40;;;0.79;84.47;94273.63;4940886;28;20118;-67
2020/12/12 08:53:54;;;;;;;32.88;17.05;;;3.10;80.90;;;0.80;84.09;94276.03;4972565;28;20035;-68
2020/12/12 08:56:22;;;;;;;34.47;18.20;;;3.10;80.40;;;0.84;84.49;94273.88;4969759;28;20053;-67
2020/12/12 08:59:00;;;;;;;35.95;18.05;;;3.20;80.40;;;0.85;84.41;94275.50;4973336;28;20035;-70
2020/12/12 09:01:42;;;;;;;33.05;17.48;;;3.20;80.20;;;0.89;84.10;94276.75;4952193;28;20035;-69
2020/12/12 09:04:08;;;;;;;30.55;16.75;;;3.30;79.90;;;0.94;84.18;94273.66;4953659;28;20128;-69
2020/12/12 09:06:45;;;;;;;33.60;17.55;;;3.40;80.10;;;0.93;84.25;94274.66;4968061;28;20035;-69
2020/12/12 09:09:25;;;;;;;34.15;18.40;;;3.30;79.70;;;1.00;84.79;94283.31;4985596;28;20057;-68
2020/12/12 09:11:59;;;;;;;31.02;17.23;;;3.50;80.60;;;1.09;84.05;94288.22;4960313;28;20046;-68
2020/12/12 09:14:27;;;;;;;36.13;21.05;;;3.60;80.20;;;1.14;84.23;94283.34;4956763;28;20051;-68
2020/12/12 09:17:04;;;;;;;34.40;20.17;;;3.60;79.80;;;1.23;84.41;94281.47;4977082;28;20430;-67
2020/12/12 09:19:30;;;;;;;32.67;18.02;;;3.80;80.10;;;1.31;84.58;94283.19;4963875;28;20046;-67
2020/12/12 09:21:57;;;;;;;36.85;20.50;;;3.90;80.70;;;1.40;83.94;94277.75;4964576;28;20532;-68
2020/12/12 09:24:23;;;;;;;35.83;20.35;;;4.00;79.90;;;1.52;84.01;94280.69;4970335;28;20565;-68
2020/12/12 09:26:50;;;;;;;33.97;18.83;;;4.10;80.60;;;1.60;83.67;94285.81;4972741;28;20029;-69
2020/12/12 09:29:16;;;;;;;33.05;19.92;;;4.10;79.60;;;1.68;84.06;94288.31;4984846;28;20042;-71
2020/12/12 09:31:42;;;;;;;37.40;21.63;;;4.20;78.70;;;1.74;84.49;94300.53;4980289;28;20088;-72
2020/12/12 09:34:07;;;;;;;45.15;24.52;;;4.20;78.70;;;1.73;83.47;94293.75;4960027;28;20042;-70
2020/12/12 09:36:33;;;;;;;45.28;25.38;;;4.20;78.00;;;1.84;84.16;94300.28;4964026;28;20042;-68
2020/12/12 09:38:59;;;;;;;35.72;20.13;;;4.40;79.30;;;1.92;83.46;94301.97;4990350;28;20045;-71
2020/12/12 09:41:24;;;;;;;33.58;18.33;;;4.50;78.90;;;1.92;83.34;94305.38;4952484;28;20065;-71
2020/12/12 09:43:50;;;;;;;34.15;18.00;;;4.40;77.10;;;1.96;83.48;94308.41;4996904;28;20068;-73
2020/12/12 09:46:18;;;;;;;35.95;18.85;;;4.40;77.20;;;1.96;83.47;94316.19;4970509;28;20709;-71
2020/12/12 09:48:44;;;;;;;33.85;17.90;;;4.50;77.20;;;1.96;83.04;94314.41;4969568;28;20046;-71
2020/12/12 09:51:10;;;;;;;32.85;19.05;;;4.50;77.20;;;2.02;83.18;94320.63;4959938;28;20469;-70
2020/12/12 09:53:37;;;;;;;42.38;18.30;;;4.40;77.20;;;2.04;82.99;94321.28;4998868;28;20824;-71
2020/12/12 09:56:03;;;;;;;32.67;17.55;;;4.50;77.00;;;2.11;83.63;94324.75;4968370;28;20058;-77
2020/12/12 09:58:28;;;;;;;30.25;17.15;;;4.60;77.80;;;2.15;82.93;94328.59;4984120;28;20070;-76
2020/12/12 10:00:54;;;;;;;31.02;17.65;;;4.70;77.10;;;2.17;83.30;94321.44;4955961;28;20518;-76
2020/12/12 10:03:21;;;;;;;30.02;18.15;;;4.60;76.90;;;2.21;83.52;94327.88;4987883;28;20569;-74
2020/12/12 10:05:46;;;;;;;29.88;16.85;;;4.70;77.20;;;2.21;82.88;94320.09;4966125;28;20121;-76
2020/12/12 10:08:12;;;;;;;32.55;18.27;;;4.70;77.00;;;2.17;82.94;94316.25;4951580;28;20133;-77
2020/12/12 10:10:38;;;;;;;30.27;16.45;;;4.70;76.80;;;2.18;82.97;94323.03;4933645;29;20081;-77
2020/12/12 10:13:03;;;;;;;31.55;17.38;;;4.70;76.80;;;2.14;83.16;94321.81;4969858;28;20054;-78
2020/12/12 10:15:29;;;;;;;26.75;15.77;;;4.60;76.80;;;2.11;83.12;94311.81;4969811;28;20045;-80
2020/12/12 10:17:55;;;;;;;31.67;17.98;;;4.60;77.00;;;2.08;82.43;94309.56;4973418;28;20449;-79
2020/12/12 10:20:21;;;;;;;27.27;15.98;;;4.50;77.30;;;2.11;82.61;94316.97;4965817;28;20048;-72
2020/12/12 10:22:47;;;;;;;27.58;15.80;;;4.60;77.30;;;2.12;82.85;94313.41;4989934;28;20062;-70
2020/12/12 10:25:13;;;;;;;27.05;15.15;;;4.70;76.80;;;2.18;82.68;94317.06;4997201;28;20033;-71